Time;durP1;ratioP1;P1;durP2;ratioP2;P2;SDS_P1;SDS_P2;PMS_P1;PMS_P2;Temp;Humidity;BMP_temperature;BMP_pressure;BME280_temperature;BME280_humidity;BME280_pressure;Samples;Min_cycle;Max_cycle;Signal;HPM_P1;HPM_P2
2021/03/12 00:00:47;;;;;;;20.00;5.90;;;;;;;;;;5073427;28;20112;-61
2021/03/12 00:03:15;;;;;;;20.92;5.95;;;;;;;;;;5073469;28;20038;-61
2021/03/12 00:06:02;;;;;;;18.05;5.93;;;;;;;;;;5072234;28;20034;-60
2021/03/12 00:08:46;;;;;;;18.35;5.95;;;;;;;;;;5073263;28;20070;-61
2021/03/12 00:11:13;;;;;;;18.17;5.95;;;;;;;;;;5072095;28;20031;-64
2021/03/12 00:13:39;;;;;;;18.33;6.22;;;;;;;;;;5072824;28;20056;-62
2021/03/12 00:16:06;;;;;;;23.15;7.00;;;;;;;;;;5072904;28;20488;-64
2021/03/12 00:18:37;;;;;;;15.38;8.30;;;;;;;;;;5072306;28;20466;-64
2021/03/12 00:21:04;;;;;;;17.40;8.63;;;;;;;;;;5073231;28;20020;-64
2021/03/12 00:23:30;;;;;;;18.67;10.18;;;;;;;;;;5072817;28;20032;-64
2021/03/12 00:25:56;;;;;;;23.48;13.95;;;;;;;;;;5073445;28;20021;-65
2021/03/12 00:28:22;;;;;;;17.83;11.52;;;;;;;;;;5072824;28;20020;-65
2021/03/12 00:30:48;;;;;;;15.95;10.63;;;;;;;;;;5071001;28;20029;-63
2021/03/12 00:33:15;;;;;;;18.40;11.50;;;;;;;;;;5073353;28;20468;-61
2021/03/12 00:35:42;;;;;;;18.88;10.18;;;;;;;;;;5073051;28;20103;-62
2021/03/12 00:38:08;;;;;;;16.17;11.25;;;;;;;;;;5072919;28;20091;-63
2021/03/12 00:40:40;;;;;;;18.55;10.45;;;;;;;;;;5070770;28;20052;-63
2021/03/12 00:43:06;;;;;;;17.60;10.25;;;;;;;;;;5073067;28;20547;-64
2021/03/12 00:45:35;;;;;;;16.55;11.15;;;;;;;;;;5072758;28;20476;-63
2021/03/12 00:48:01;;;;;;;18.05;10.10;;;;;;;;;;5073051;28;20138;-65
2021/03/12 00:50:30;;;;;;;20.85;10.00;;;;;;;;;;5073012;28;20051;-65
2021/03/12 00:52:56;;;;;;;16.52;10.38;;;;;;;;;;5042025;28;20059;-66
2021/03/12 00:55:22;;;;;;;21.80;10.95;;;;;;;;;;5070477;28;20070;-65
2021/03/12 00:57:48;;;;;;;18.80;11.10;;;;;;;;;;4720221;28;10000455;-65
2021/03/12 01:00:14;;;;;;;22.75;11.75;;;;;;;;;;5070300;28;20030;-64
2021/03/12 01:02:40;;;;;;;15.68;10.38;;;;;;;;;;5083692;22;20095;-63
2021/03/12 01:05:07;;;;;;;18.42;11.32;;;;;;;;;;5069078;28;20064;-63
2021/03/12 01:07:33;;;;;;;18.45;10.52;;;;;;;;;;5050751;28;20085;-63
2021/03/12 01:09:59;;;;;;;17.15;10.43;;;;;;;;;;5068725;28;20472;-63
2021/03/12 01:12:25;;;;;;;16.67;9.85;;;;;;;;;;5068239;28;20029;-63
2021/03/12 01:14:51;;;;;;;17.20;9.95;;;;;;;;;;5069333;28;20035;-63
2021/03/12 01:17:18;;;;;;;15.73;9.48;;;;;;;;;;5052785;28;20024;-62
2021/03/12 01:19:47;;;;;;;17.63;10.82;;;;;;;;;;5070551;28;20148;-63
2021/03/12 01:22:13;;;;;;;21.30;11.20;;;;;;;;;;5070443;28;20099;-64
2021/03/12 01:24:39;;;;;;;21.05;11.43;;;;;;;;;;5071166;28;20029;-63
2021/03/12 01:27:06;;;;;;;19.40;10.60;;;;;;;;;;5071159;28;20025;-63
2021/03/12 01:29:33;;;;;;;18.88;9.98;;;;;;;;;;5052666;28;20115;-64
2021/03/12 01:31:59;;;;;;;20.20;11.57;;;;;;;;;;5052173;28;20422;-63
2021/03/12 01:34:25;;;;;;;17.50;10.95;;;;;;;;;;5070671;28;20039;-63
2021/03/12 01:36:51;;;;;;;17.58;9.60;;;;;;;;;;5070802;28;20020;-64
2021/03/12 01:39:17;;;;;;;23.67;12.80;;;;;;;;;;5070541;28;20477;-64
2021/03/12 01:41:43;;;;;;;18.23;10.88;;;;;;;;;;5069603;28;20028;-64
2021/03/12 01:44:09;;;;;;;17.75;10.80;;;;;;;;;;5070392;28;20059;-64
2021/03/12 01:46:35;;;;;;;21.25;11.35;;;;;;;;;;5052240;28;20051;-64
2021/03/12 01:49:01;;;;;;;23.45;11.98;;;;;;;;;;5070155;28;20108;-64
2021/03/12 01:51:27;;;;;;;24.25;12.65;;;;;;;;;;5051806;28;20042;-64
2021/03/12 01:53:53;;;;;;;18.77;10.65;;;;;;;;;;5052326;28;20021;-64
2021/03/12 01:56:20;;;;;;;19.90;11.32;;;;;;;;;;5069974;28;20055;-64
2021/03/12 01:58:46;;;;;;;21.17;11.38;;;;;;;;;;5070072;28;20473;-64
2021/03/12 02:01:13;;;;;;;20.83;10.77;;;;;;;;;;5051832;28;20028;-64
2021/03/12 02:03:39;;;;;;;19.88;9.60;;;;;;;;;;5070187;28;20040;-65
2021/03/12 02:06:05;;;;;;;21.05;10.98;;;;;;;;;;5070221;28;20476;-63
2021/03/12 02:08:32;;;;;;;22.50;10.57;;;;;;;;;;5069742;28;20024;-63
2021/03/12 02:10:58;;;;;;;20.85;9.75;;;;;;;;;;5069875;28;20380;-64
2021/03/12 02:13:46;;;;;;;23.20;11.02;;;;;;;;;;5052410;28;20416;-63
2021/03/12 02:16:12;;;;;;;24.75;11.02;;;;;;;;;;5070162;28;20103;-63
2021/03/12 02:18:45;;;;;;;19.98;9.88;;;;;;;;;;5069856;28;20040;-63
2021/03/12 02:21:23;;;;;;;20.70;10.15;;;;;;;;;;5069717;28;20096;-63
2021/03/12 02:23:52;;;;;;;20.52;9.95;;;;;;;;;;5052047;28;20119;-63
2021/03/12 02:26:20;;;;;;;22.90;10.60;;;;;;;;;;5070131;28;20367;-63
2021/03/12 02:28:48;;;;;;;21.25;9.88;;;;;;;;;;5051867;28;20031;-63
2021/03/12 02:31:14;;;;;;;21.00;10.10;;;;;;;;;;5069390;28;20501;-64
2021/03/12 02:33:40;;;;;;;25.58;10.20;;;;;;;;;;5051791;28;20035;-63
2021/03/12 02:36:07;;;;;;;20.50;9.43;;;;;;;;;;5069996;28;20096;-63
2021/03/12 02:38:33;;;;;;;23.33;10.98;;;;;;;;;;5069720;28;20028;-63
2021/03/12 02:41:00;;;;;;;17.65;9.48;;;;;;;;;;5070630;28;20052;-63
2021/03/12 02:43:27;;;;;;;20.23;10.00;;;;;;;;;;5055710;28;20025;-63
2021/03/12 02:45:54;;;;;;;20.08;10.43;;;;;;;;;;5073545;28;20016;-64
2021/03/12 02:48:20;;;;;;;17.40;9.57;;;;;;;;;;5073187;28;20027;-65
2021/03/12 02:50:47;;;;;;;20.52;10.32;;;;;;;;;;5073754;28;20103;-63
2021/03/12 02:53:13;;;;;;;17.05;9.82;;;;;;;;;;5073676;28;20063;-64
2021/03/12 02:55:39;;;;;;;19.20;10.40;;;;;;;;;;5073706;28;20107;-64
2021/03/12 02:58:05;;;;;;;23.55;10.90;;;;;;;;;;5055233;28;20025;-64
2021/03/12 03:00:32;;;;;;;19.52;10.05;;;;;;;;;;5073486;28;20029;-64
2021/03/12 03:03:00;;;;;;;16.77;8.57;;;;;;;;;;5072692;28;20107;-64
2021/03/12 03:05:26;;;;;;;21.35;9.68;;;;;;;;;;5073270;28;20020;-64
2021/03/12 03:07:52;;;;;;;18.17;8.95;;;;;;;;;;5072922;28;20051;-64
2021/03/12 03:10:19;;;;;;;16.40;8.48;;;;;;;;;;5055184;28;20085;-64
2021/03/12 03:12:46;;;;;;;16.55;8.50;;;;;;;;;;5072380;28;20488;-64
2021/03/12 03:15:12;;;;;;;23.52;8.77;;;;;;;;;;5072878;28;20388;-64
2021/03/12 03:17:38;;;;;;;17.83;8.32;;;;;;;;;;5072429;28;20035;-63
2021/03/12 03:20:10;;;;;;;18.40;9.30;;;;;;;;;;5054690;28;20063;-64
2021/03/12 03:22:37;;;;;;;17.25;8.27;;;;;;;;;;5054195;28;20050;-64
2021/03/12 03:25:04;;;;;;;16.48;8.52;;;;;;;;;;5072668;28;20020;-63
2021/03/12 03:27:30;;;;;;;18.63;8.45;;;;;;;;;;5072687;28;20024;-64
2021/03/12 03:29:57;;;;;;;18.02;7.43;;;;;;;;;;5072411;28;20150;-64
2021/03/12 03:32:22;;;;;;;21.27;8.63;;;;;;;;;;5070904;28;20028;-64
2021/03/12 03:37:25;;;;;;;21.45;8.40;;;;;;;;;;5429951;22;20419;-61
2021/03/12 03:39:51;;;;;;;20.25;8.70;;;;;;;;;;4997172;28;20037;-62
2021/03/12 03:42:17;;;;;;;20.17;9.38;;;;;;;;;;5014029;28;20380;-62
2021/03/12 03:44:45;;;;;;;28.20;9.85;;;;;;;;;;5013762;28;20037;-62
2021/03/12 03:47:11;;;;;;;19.58;8.30;;;;;;;;;;5002278;28;20065;-62
2021/03/12 03:49:38;;;;;;;19.83;7.55;;;;;;;;;;5019404;22;20057;-64
2021/03/12 03:52:05;;;;;;;19.92;8.68;;;;;;;;;;5012500;28;20026;-64
2021/03/12 03:54:32;;;;;;;25.45;8.80;;;;;;;;;;5012214;28;20026;-65
2021/03/12 03:56:59;;;;;;;17.60;8.15;;;;;;;;;;5010656;28;20026;-65
2021/03/12 03:59:25;;;;;;;19.70;8.00;;;;;;;;;;5011818;28;20109;-66
2021/03/12 04:01:51;;;;;;;16.58;7.65;;;;;;;;;;5012440;28;20495;-63
2021/03/12 04:04:17;;;;;;;27.05;9.48;;;;;;;;;;5012249;28;20029;-64
2021/03/12 04:06:44;;;;;;;20.15;8.93;;;;;;;;;;5011455;28;20449;-63
2021/03/12 04:09:15;;;;;;;14.40;7.15;;;;;;;;;;5012269;28;20026;-63
2021/03/12 04:11:42;;;;;;;19.67;7.70;;;;;;;;;;5012132;28;20022;-64
2021/03/12 04:14:08;;;;;;;24.95;9.45;;;;;;;;;;4994656;28;20439;-64
2021/03/12 04:16:35;;;;;;;26.80;7.90;;;;;;;;;;4993996;28;20088;-63
2021/03/12 04:19:02;;;;;;;20.02;7.88;;;;;;;;;;4994633;28;20022;-64
2021/03/12 04:21:28;;;;;;;17.17;7.57;;;;;;;;;;5012315;28;20129;-64
2021/03/12 04:23:54;;;;;;;19.50;7.80;;;;;;;;;;4994531;28;20318;-64
2021/03/12 04:26:20;;;;;;;18.02;7.22;;;;;;;;;;5011256;28;20084;-64
2021/03/12 04:28:47;;;;;;;15.65;6.65;;;;;;;;;;5012206;28;20065;-63
2021/03/12 04:31:13;;;;;;;20.55;7.03;;;;;;;;;;4994680;28;20037;-64
2021/03/12 04:33:39;;;;;;;16.67;7.47;;;;;;;;;;5011978;28;20036;-64
2021/03/12 04:36:06;;;;;;;16.50;7.38;;;;;;;;;;5011612;28;20030;-64
2021/03/12 04:38:33;;;;;;;17.95;7.10;;;;;;;;;;5012063;28;20053;-64
2021/03/12 04:40:59;;;;;;;19.48;6.57;;;;;;;;;;5011619;28;20144;-63
2021/03/12 04:43:25;;;;;;;18.77;7.15;;;;;;;;;;5011623;28;20021;-64
2021/03/12 04:45:51;;;;;;;16.15;6.78;;;;;;;;;;4993873;28;20072;-63
2021/03/12 04:48:17;;;;;;;16.27;5.95;;;;;;;;;;4993552;28;20370;-63
2021/03/12 04:50:44;;;;;;;19.77;7.55;;;;;;;;;;4993816;28;20038;-64
2021/03/12 04:53:10;;;;;;;13.02;5.68;;;;;;;;;;4993851;28;20109;-64
2021/03/12 04:55:36;;;;;;;20.00;7.25;;;;;;;;;;5011596;28;20053;-64
2021/03/12 04:58:03;;;;;;;15.80;6.15;;;;;;;;;;5011106;28;20117;-64
2021/03/12 05:00:30;;;;;;;17.20;6.80;;;;;;;;;;5011814;28;20021;-64
2021/03/12 05:02:56;;;;;;;29.60;8.10;;;;;;;;;;5011652;28;20358;-64
2021/03/12 05:05:23;;;;;;;20.17;7.20;;;;;;;;;;5011421;28;20470;-64
2021/03/12 05:07:49;;;;;;;18.02;7.03;;;;;;;;;;5010935;28;20073;-64
2021/03/12 05:10:16;;;;;;;22.27;8.70;;;;;;;;;;5011515;28;20030;-63
2021/03/12 05:12:41;;;;;;;20.92;8.18;;;;;;;;;;5011280;28;20081;-64
2021/03/12 05:15:08;;;;;;;16.63;7.00;;;;;;;;;;5010974;28;20488;-64
2021/03/12 05:17:34;;;;;;;19.10;7.80;;;;;;;;;;5010314;28;20034;-64
2021/03/12 05:20:00;;;;;;;18.20;8.60;;;;;;;;;;4993377;28;20026;-65
2021/03/12 05:22:26;;;;;;;19.27;8.30;;;;;;;;;;4993419;28;20425;-64
2021/03/12 05:24:52;;;;;;;19.88;8.63;;;;;;;;;;5011176;28;20030;-64
2021/03/12 05:27:18;;;;;;;15.80;6.57;;;;;;;;;;4992498;28;20026;-64
2021/03/12 05:29:44;;;;;;;19.13;8.00;;;;;;;;;;4993260;28;20030;-64
2021/03/12 05:32:10;;;;;;;18.42;8.20;;;;;;;;;;4993357;28;20065;-63
2021/03/12 05:34:36;;;;;;;17.30;7.75;;;;;;;;;;5010857;28;20056;-64
2021/03/12 05:37:02;;;;;;;17.92;7.30;;;;;;;;;;5010119;28;20108;-64
2021/03/12 05:39:28;;;;;;;14.70;6.00;;;;;;;;;;4993241;28;20025;-64
2021/03/12 05:41:54;;;;;;;18.60;6.93;;;;;;;;;;5011363;28;20361;-65
2021/03/12 05:44:21;;;;;;;19.77;8.50;;;;;;;;;;4993338;28;20018;-65
2021/03/12 05:46:47;;;;;;;20.02;7.43;;;;;;;;;;4992857;28;20034;-64
2021/03/12 05:49:18;;;;;;;18.27;7.60;;;;;;;;;;5010788;28;20570;-65
2021/03/12 05:51:44;;;;;;;21.10;7.43;;;;;;;;;;4993034;28;20038;-64
2021/03/12 05:54:10;;;;;;;18.27;7.32;;;;;;;;;;5010814;28;20165;-64
2021/03/12 05:56:36;;;;;;;19.10;6.97;;;;;;;;;;4992386;28;20448;-64
2021/03/12 05:59:06;;;;;;;18.05;7.43;;;;;;;;;;5010584;28;20097;-64
2021/03/12 06:01:32;;;;;;;22.80;7.80;;;;;;;;;;5010642;28;20045;-65
2021/03/12 06:03:58;;;;;;;19.42;8.20;;;;;;;;;;5010555;28;20017;-65
2021/03/12 06:06:26;;;;;;;19.77;6.72;;;;;;;;;;4992223;28;20029;-65
2021/03/12 06:08:52;;;;;;;14.20;6.10;;;;;;;;;;5010596;28;20044;-65
2021/03/12 06:11:18;;;;;;;17.83;7.28;;;;;;;;;;4993090;28;20299;-65
2021/03/12 06:13:55;;;;;;;21.10;7.90;;;;;;;;;;4992690;28;20072;-65
2021/03/12 06:16:25;;;;;;;17.30;6.68;;;;;;;;;;5011480;28;20524;-65
2021/03/12 06:19:11;;;;;;;18.88;6.85;;;;;;;;;;5014118;28;20096;-65
2021/03/12 06:21:38;;;;;;;19.60;7.57;;;;;;;;;;4996796;28;20384;-65
2021/03/12 06:24:23;;;;;;;29.48;9.48;;;;;;;;;;5014270;28;20019;-65
2021/03/12 06:26:49;;;;;;;19.05;7.57;;;;;;;;;;5013233;28;20018;-65
2021/03/12 06:29:15;;;;;;;17.13;7.07;;;;;;;;;;5014062;28;20052;-65
2021/03/12 06:31:49;;;;;;;19.42;6.70;;;;;;;;;;4996655;28;20022;-66
2021/03/12 06:34:15;;;;;;;20.67;7.93;;;;;;;;;;5013967;28;20022;-65
2021/03/12 06:36:41;;;;;;;20.70;7.68;;;;;;;;;;4995565;28;20396;-66
2021/03/12 06:39:07;;;;;;;19.08;7.88;;;;;;;;;;5013657;28;20022;-66
2021/03/12 06:41:37;;;;;;;22.58;7.28;;;;;;;;;;5013721;28;20034;-65
2021/03/12 06:44:22;;;;;;;21.35;7.72;;;;;;;;;;5013609;28;20026;-65
2021/03/12 06:46:48;;;;;;;18.63;7.38;;;;;;;;;;4995196;28;20022;-65
2021/03/12 06:49:14;;;;;;;20.48;6.90;;;;;;;;;;5013299;28;20088;-65
2021/03/12 06:51:56;;;;;;;21.05;9.00;;;;;;;;;;4996145;28;20117;-65
2021/03/12 06:54:23;;;;;;;18.38;6.85;;;;;;;;;;5013307;28;20496;-65
2021/03/12 06:56:49;;;;;;;24.83;7.22;;;;;;;;;;5012691;28;20057;-65
2021/03/12 06:59:24;;;;;;;25.38;8.10;;;;;;;;;;4995490;28;20487;-65
2021/03/12 07:02:04;;;;;;;21.15;7.75;;;;;;;;;;4996249;28;20492;-66
2021/03/12 07:04:31;;;;;;;19.75;7.05;;;;;;;;;;5007925;28;20022;-66
2021/03/12 07:06:57;;;;;;;19.85;7.10;;;;;;;;;;5013178;28;20030;-65
2021/03/12 07:09:25;;;;;;;19.25;7.68;;;;;;;;;;4995595;28;20022;-65
2021/03/12 07:12:01;;;;;;;19.50;7.10;;;;;;;;;;5013321;28;20049;-65
2021/03/12 07:14:28;;;;;;;21.80;7.00;;;;;;;;;;5013228;28;20021;-65
2021/03/12 07:16:54;;;;;;;22.52;7.22;;;;;;;;;;5012944;28;20494;-65
2021/03/12 07:19:20;;;;;;;18.60;7.68;;;;;;;;;;5012672;28;20052;-64
2021/03/12 07:21:50;;;;;;;19.90;6.85;;;;;;;;;;5013238;28;20472;-64
2021/03/12 07:24:20;;;;;;;18.25;6.15;;;;;;;;;;5013585;28;20428;-64
2021/03/12 07:26:48;;;;;;;14.57;5.70;;;;;;;;;;5012415;28;20026;-66
2021/03/12 07:29:16;;;;;;;17.23;6.72;;;;;;;;;;5013110;28;20488;-65
2021/03/12 07:31:44;;;;;;;19.40;7.30;;;;;;;;;;4995308;28;20038;-65
2021/03/12 07:34:14;;;;;;;18.90;6.53;;;;;;;;;;5012367;28;20033;-66
2021/03/12 07:36:42;;;;;;;17.20;6.45;;;;;;;;;;5013289;28;20046;-65
2021/03/12 07:39:08;;;;;;;20.13;6.97;;;;;;;;;;5012499;28;20574;-64
2021/03/12 07:41:34;;;;;;;14.52;5.07;;;;;;;;;;5012546;28;20161;-63
2021/03/12 07:44:00;;;;;;;16.98;6.10;;;;;;;;;;4994530;28;20125;-63
2021/03/12 07:46:27;;;;;;;17.35;6.30;;;;;;;;;;5017872;28;20078;-65
2021/03/12 07:48:53;;;;;;;23.73;6.03;;;;;;;;;;5010178;28;20050;-63
2021/03/12 07:51:19;;;;;;;22.35;8.45;;;;;;;;;;4994755;28;20088;-63
2021/03/12 07:53:50;;;;;;;17.25;6.15;;;;;;;;;;5012541;28;20026;-64
2021/03/12 07:56:17;;;;;;;18.98;7.15;;;;;;;;;;5012315;28;20099;-64
2021/03/12 07:58:54;;;;;;;17.25;7.07;;;;;;;;;;5012085;28;20037;-65
2021/03/12 08:01:20;;;;;;;18.50;6.95;;;;;;;;;;4994818;28;20029;-65
2021/03/12 08:03:49;;;;;;;19.15;7.38;;;;;;;;;;5016331;28;20104;-60
2021/03/12 08:06:18;;;;;;;18.13;6.85;;;;;;;;;;5024509;28;20076;-59
2021/03/12 08:08:45;;;;;;;21.27;6.63;;;;;;;;;;5010313;28;20038;-59
2021/03/12 08:11:21;;;;;;;18.70;6.22;;;;;;;;;;5012427;28;20058;-58
2021/03/12 08:13:48;;;;;;;21.85;7.57;;;;;;;;;;4994710;28;20053;-59
2021/03/12 08:16:14;;;;;;;16.80;6.03;;;;;;;;;;4994404;28;20090;-55
2021/03/12 08:18:40;;;;;;;19.25;5.85;;;;;;;;;;5011307;28;20061;-57
2021/03/12 08:21:27;;;;;;;15.77;5.90;;;;;;;;;;5012208;28;20021;-61
2021/03/12 08:23:53;;;;;;;18.77;6.68;;;;;;;;;;5011905;28;20025;-58
2021/03/12 08:26:45;;;;;;;16.38;6.40;;;;;;;;;;5011811;28;20022;-60
2021/03/12 08:29:30;;;;;;;19.02;6.60;;;;;;;;;;5009152;28;20045;-61
2021/03/12 08:31:56;;;;;;;24.50;6.57;;;;;;;;;;4993356;28;20025;-62
2021/03/12 08:34:37;;;;;;;16.95;6.13;;;;;;;;;;5011308;28;20468;-62
2021/03/12 08:37:22;;;;;;;15.70;6.47;;;;;;;;;;5009476;28;20396;-62
2021/03/12 08:39:48;;;;;;;17.38;7.40;;;;;;;;;;5011039;28;20029;-63
2021/03/12 08:42:17;;;;;;;23.10;6.95;;;;;;;;;;5011858;28;20080;-65
2021/03/12 08:44:44;;;;;;;19.67;6.78;;;;;;;;;;5011636;28;20485;-62
2021/03/12 08:47:10;;;;;;;23.98;8.40;;;;;;;;;;5011445;28;20022;-61
2021/03/12 08:49:38;;;;;;;17.65;7.13;;;;;;;;;;5011524;28;20030;-61
2021/03/12 08:52:05;;;;;;;19.13;6.90;;;;;;;;;;5011591;28;20481;-64
2021/03/12 08:54:31;;;;;;;23.80;7.20;;;;;;;;;;5011733;28;20049;-63
2021/03/12 08:56:57;;;;;;;21.85;8.40;;;;;;;;;;5011029;28;20025;-62
2021/03/12 08:59:29;;;;;;;24.35;7.82;;;;;;;;;;5011326;28;20092;-62
2021/03/12 09:01:57;;;;;;;19.10;7.05;;;;;;;;;;4993854;28;20030;-63
2021/03/12 09:04:35;;;;;;;19.55;7.40;;;;;;;;;;5011067;28;20018;-61
2021/03/12 09:07:04;;;;;;;18.25;6.80;;;;;;;;;;4991324;28;20500;-62
2021/03/12 09:09:30;;;;;;;21.30;7.35;;;;;;;;;;4991263;28;20023;-61
2021/03/12 09:11:57;;;;;;;22.83;6.97;;;;;;;;;;4991281;28;20110;-61
2021/03/12 09:14:23;;;;;;;21.00;8.30;;;;;;;;;;4991465;28;20374;-64
2021/03/12 09:16:49;;;;;;;20.40;9.20;;;;;;;;;;4990994;28;20054;-62
2021/03/12 09:19:15;;;;;;;19.98;7.13;;;;;;;;;;4991224;28;20038;-63
2021/03/12 09:21:41;;;;;;;19.85;6.68;;;;;;;;;;4991522;28;20469;-64
2021/03/12 09:24:07;;;;;;;22.13;7.97;;;;;;;;;;4973683;28;20025;-62
2021/03/12 09:26:35;;;;;;;20.10;8.60;;;;;;;;;;4991469;28;20030;-63
2021/03/12 09:29:06;;;;;;;21.10;7.88;;;;;;;;;;4991359;28;20119;-62
2021/03/12 09:31:33;;;;;;;15.98;7.22;;;;;;;;;;4993551;28;20396;-64
2021/03/12 09:34:00;;;;;;;19.30;8.23;;;;;;;;;;4995257;28;20537;-64
2021/03/12 09:36:40;;;;;;;27.23;10.00;;;;;;;;;;4994316;28;20045;-63
2021/03/12 09:39:18;;;;;;;24.90;9.07;;;;;;;;;;4973518;28;20070;-63
2021/03/12 09:41:45;;;;;;;21.05;8.25;;;;;;;;;;4991058;28;20022;-60
2021/03/12 09:44:15;;;;;;;25.05;8.30;;;;;;;;;;4992046;28;20018;-61
2021/03/12 09:46:42;;;;;;;24.77;9.40;;;;;;;;;;4973694;28;20034;-61
2021/03/12 09:51:47;;;;;;;23.95;9.20;;;;;;;;;;4994065;28;20038;-56
2021/03/12 09:54:14;;;;;;;21.27;9.60;;;;;;;;;;4995773;28;20022;-55
2021/03/12 09:56:47;;;;;;;24.88;9.35;;;;;;;;;;4993804;28;20022;-59
2021/03/12 09:59:13;;;;;;;23.85;9.90;;;;;;;;;;4994885;28;20030;-58
2021/03/12 10:01:40;;;;;;;22.33;8.45;;;;;;;;;;4995949;28;20042;-53
2021/03/12 10:04:23;;;;;;;19.83;8.20;;;;;;;;;;4996002;28;20481;-58
2021/03/12 10:06:55;;;;;;;17.10;8.50;;;;;;;;;;4975968;28;20031;-55
2021/03/12 10:09:25;;;;;;;20.42;8.35;;;;;;;;;;4976105;28;20023;-55
2021/03/12 10:11:52;;;;;;;20.90;8.77;;;;;;;;;;4991261;28;20027;-54
2021/03/12 10:14:31;;;;;;;19.35;9.35;;;;;;;;;;4976099;28;20987;-56
2021/03/12 10:17:16;;;;;;;23.17;8.48;;;;;;;;;;4975386;28;20549;-54
2021/03/12 10:19:53;;;;;;;20.00;8.18;;;;;;;;;;4976120;28;20086;-57
2021/03/12 10:22:22;;;;;;;26.52;9.45;;;;;;;;;;4991036;28;20502;-54
2021/03/12 10:24:55;;;;;;;23.08;8.60;;;;;;;;;;4975877;28;20034;-54
2021/03/12 10:27:22;;;;;;;22.98;9.25;;;;;;;;;;4975317;28;20018;-54
2021/03/12 10:29:48;;;;;;;25.45;8.20;;;;;;;;;;4975425;28;20062;-53
2021/03/12 10:32:15;;;;;;;20.38;9.00;;;;;;;;;;4990779;28;20027;-55
2021/03/12 10:34:41;;;;;;;17.95;8.07;;;;;;;;;;4975635;28;20098;-55
2021/03/12 10:37:18;;;;;;;18.83;8.15;;;;;;;;;;4975029;28;20041;-53
2021/03/12 10:39:46;;;;;;;21.08;8.18;;;;;;;;;;4975357;28;20362;-58
2021/03/12 10:42:13;;;;;;;19.23;8.50;;;;;;;;;;4975851;28;20073;-55
2021/03/12 10:45:08;;;;;;;19.45;9.60;;;;;;;;;;4975792;28;20089;-58
2021/03/12 10:47:35;;;;;;;19.75;10.05;;;;;;;;;;4966391;28;20043;-53
2021/03/12 10:50:18;;;;;;;24.23;8.60;;;;;;;;;;4974210;28;20109;-52
2021/03/12 10:52:44;;;;;;;20.27;8.50;;;;;;;;;;4975814;28;20027;-55
2021/03/12 10:55:10;;;;;;;19.52;8.73;;;;;;;;;;4991037;28;20030;-53
2021/03/12 10:57:38;;;;;;;17.20;9.15;;;;;;;;;;4975840;28;20031;-57
2021/03/12 11:00:07;;;;;;;23.42;11.00;;;;;;;;;;4992596;28;20027;-53
2021/03/12 11:02:38;;;;;;;21.35;10.88;;;;;;;;;;4975118;28;20478;-56
2021/03/12 11:05:05;;;;;;;19.83;10.35;;;;;;;;;;4980638;28;20019;-54
2021/03/12 11:07:32;;;;;;;25.17;11.07;;;;;;;;;;4995058;28;20096;-59
2021/03/12 11:09:58;;;;;;;17.88;9.00;;;;;;;;;;4995801;28;20034;-54
2021/03/12 11:12:25;;;;;;;20.23;9.23;;;;;;;;;;4994128;28;20027;-52
2021/03/12 11:15:00;;;;;;;19.77;9.20;;;;;;;;;;4994525;28;20034;-54
2021/03/12 11:17:26;;;;;;;22.52;8.95;;;;;;;;;;4992163;28;20460;-55
2021/03/12 11:19:52;;;;;;;22.58;9.88;;;;;;;;;;4993964;28;20054;-54
2021/03/12 11:22:18;;;;;;;19.00;9.35;;;;;;;;;;4992715;28;20029;-57
2021/03/12 11:24:46;;;;;;;22.23;10.57;;;;;;;;;;4993169;28;20023;-60
2021/03/12 11:27:12;;;;;;;22.77;10.30;;;;;;;;;;4992929;28;20054;-53
2021/03/12 11:29:38;;;;;;;34.45;10.50;;;;;;;;;;4995461;28;20034;-59
2021/03/12 11:32:05;;;;;;;20.25;11.60;;;;;;;;;;4995014;28;20023;-59
2021/03/12 11:34:31;;;;;;;19.10;10.57;;;;;;;;;;4994505;28;20113;-56
2021/03/12 11:36:57;;;;;;;19.35;9.85;;;;;;;;;;4993314;28;20072;-54
2021/03/12 11:39:23;;;;;;;17.20;8.95;;;;;;;;;;4993688;28;20022;-55
2021/03/12 11:41:49;;;;;;;18.08;9.98;;;;;;;;;;4994231;28;20408;-54
2021/03/12 11:44:15;;;;;;;19.65;9.40;;;;;;;;;;4993942;28;20023;-55
2021/03/12 11:46:41;;;;;;;20.35;9.77;;;;;;;;;;4992882;28;20030;-55
2021/03/12 11:49:07;;;;;;;20.92;10.73;;;;;;;;;;4993060;28;20100;-53
2021/03/12 11:51:33;;;;;;;21.50;9.15;;;;;;;;;;4991627;28;20562;-53
2021/03/12 11:53:59;;;;;;;17.42;8.73;;;;;;;;;;4993337;28;20346;-53
2021/03/12 11:56:26;;;;;;;16.73;8.93;;;;;;;;;;4992775;28;20112;-55
2021/03/12 11:58:53;;;;;;;23.38;8.93;;;;;;;;;;4993268;28;20034;-58
2021/03/12 12:01:19;;;;;;;23.60;9.82;;;;;;;;;;4992616;28;20029;-56
2021/03/12 12:03:45;;;;;;;18.27;9.18;;;;;;;;;;4993250;28;20027;-54
2021/03/12 12:06:11;;;;;;;17.35;8.95;;;;;;;;;;4991407;28;20870;-55
2021/03/12 12:08:38;;;;;;;19.52;10.82;;;;;;;;;;4988134;28;20169;-54
2021/03/12 12:11:04;;;;;;;27.23;16.52;;;;;;;;;;4990084;28;20418;-57
2021/03/12 12:13:33;;;;;;;19.70;13.82;;;;;;;;;;4991087;28;20034;-56
2021/03/12 12:15:59;;;;;;;26.85;12.68;;;;;;;;;;4991810;28;20042;-57
2021/03/12 12:18:26;;;;;;;22.42;10.98;;;;;;;;;;4989318;28;20284;-58
2021/03/12 12:20:52;;;;;;;22.77;11.07;;;;;;;;;;4990932;28;20080;-53
2021/03/12 12:23:18;;;;;;;17.50;9.68;;;;;;;;;;4991624;28;20018;-57
2021/03/12 12:25:44;;;;;;;23.88;10.18;;;;;;;;;;4989857;28;20448;-56
2021/03/12 12:28:10;;;;;;;20.90;8.23;;;;;;;;;;4990284;28;20542;-57
2021/03/12 12:30:37;;;;;;;18.83;8.75;;;;;;;;;;4987535;28;20069;-57
2021/03/12 12:33:04;;;;;;;23.55;7.88;;;;;;;;;;4990999;28;20489;-57
2021/03/12 12:35:31;;;;;;;21.67;7.90;;;;;;;;;;4989170;28;20485;-54
2021/03/12 12:37:57;;;;;;;22.30;8.55;;;;;;;;;;4985416;28;20045;-54
2021/03/12 12:40:24;;;;;;;17.20;7.93;;;;;;;;;;4983086;28;20045;-58
2021/03/12 12:42:50;;;;;;;20.77;7.95;;;;;;;;;;4986309;28;20113;-55
2021/03/12 12:45:16;;;;;;;17.65;8.02;;;;;;;;;;4991292;28;20022;-58
2021/03/12 12:47:42;;;;;;;18.92;6.80;;;;;;;;;;4991290;28;20034;-54
2021/03/12 12:50:10;;;;;;;17.02;7.40;;;;;;;;;;4990239;28;20034;-56
2021/03/12 12:52:36;;;;;;;19.08;7.70;;;;;;;;;;4987947;28;20022;-60
2021/03/12 12:55:03;;;;;;;20.70;7.85;;;7.30;99.90;;;;;;4991260;28;20338;-56
2021/03/12 12:57:29;;;;;;;22.83;9.63;;;9.00;99.90;;;;;;4988603;28;20045;-59
2021/03/12 12:59:55;;;;;;;17.30;7.20;;;9.00;99.90;;;;;;4991757;28;20022;-57
2021/03/12 13:02:21;;;;;;;21.95;8.73;;;9.30;99.90;;;;;;4988171;28;20026;-55
2021/03/12 13:04:47;;;;;;;22.23;7.82;;;;;;;;;;4990432;28;20018;-55
2021/03/12 13:07:13;;;;;;;20.52;10.00;;;;;;;;;;4988330;28;20093;-56
2021/03/12 13:09:39;;;;;;;19.80;9.15;;;;;;;;;;4990569;28;20026;-57
2021/03/12 13:12:06;;;;;;;21.10;9.45;;;;;;;;;;4986941;28;20019;-54
2021/03/12 13:14:32;;;;;;;19.48;8.63;;;;;;;;;;4990444;28;20022;-55
2021/03/12 13:16:58;;;;;;;19.67;8.82;;;;;;;;;;4990027;28;20088;-55
2021/03/12 13:19:24;;;;;;;16.77;8.48;;;;;;;;;;4990489;28;20030;-58
2021/03/12 13:21:52;;;;;;;21.83;9.50;;;;;;;;;;4986676;28;20118;-58
2021/03/12 13:24:19;;;;;;;20.63;7.88;;;;;;;;;;4989790;28;20022;-57
2021/03/12 13:26:45;;;;;;;16.63;7.25;;;;;;;;;;4990807;28;20405;-60
2021/03/12 13:29:12;;;;;;;16.60;7.22;;;;;;;;;;4991056;28;20038;-61
2021/03/12 13:31:38;;;;;;;17.27;9.05;;;;;;;;;;4991450;28;20418;-63
2021/03/12 13:34:05;;;;;;;21.33;7.85;;;;;;;;;;4992489;28;20022;-59
2021/03/12 13:36:31;;;;;;;17.75;8.45;;;;;;;;;;4993204;28;20031;-58
2021/03/12 13:38:57;;;;;;;16.63;7.95;;;;;;;;;;4992650;28;20106;-61
2021/03/12 13:41:26;;;;;;;16.98;8.38;;;;;;;;;;4992075;28;20428;-61
2021/03/12 13:43:52;;;;;;;17.08;7.82;;;;;;;;;;4990910;28;20515;-61
2021/03/12 13:46:18;;;;;;;20.00;8.07;;;;;;;;;;4992470;28;20105;-59
2021/03/12 13:48:44;;;;;;;19.67;8.25;;;;;;;;;;4991282;28;20041;-63
2021/03/12 13:51:12;;;;;;;16.73;7.72;;;;;;;;;;4991055;28;20038;-59
2021/03/12 13:53:38;;;;;;;18.90;8.40;;;;;;;;;;4991047;28;20026;-56
2021/03/12 13:56:04;;;;;;;17.17;8.05;;;;;;;;;;4991025;28;20053;-58
2021/03/12 13:58:30;;;;;;;18.70;7.97;;;;;;;;;;4991756;28;20026;-60
2021/03/12 14:00:56;;;;;;;21.95;9.02;;;;;;;;;;4991909;28;20436;-60
2021/03/12 14:03:22;;;;;;;22.38;8.20;;;;;;;;;;4992005;28;20026;-55
2021/03/12 14:05:48;;;;;;;15.23;8.35;;;;;;;;;;4991828;28;20102;-57
2021/03/12 14:08:14;;;;;;;24.27;9.93;;;;;;;;;;4990799;28;20068;-60
2021/03/12 14:10:41;;;;;;;26.17;13.40;;;;;;;;;;4991689;28;20027;-61
2021/03/12 14:13:07;;;;;;;19.85;13.40;;;;;;;;;;4991548;28;20139;-60
2021/03/12 14:15:34;;;;;;;21.55;17.55;;;;;;;;;;4992011;28;20026;-59
2021/03/12 14:18:00;;;;;;;20.83;16.63;;;;;;;;;;4991775;28;20030;-62
2021/03/12 14:20:26;;;;;;;19.52;14.50;;;;;;;;;;4989988;28;20100;-60
2021/03/12 14:22:52;;;;;;;21.92;14.25;;;;;;;;;;4990186;28;20027;-59
2021/03/12 14:25:18;;;;;;;22.35;13.18;;;;;;;;;;4990865;28;20493;-56
2021/03/12 14:27:44;;;;;;;22.45;13.05;;;;;;;;;;4990339;28;20089;-56
2021/03/12 14:30:10;;;;;;;25.92;13.55;;;;;;;;;;4990938;28;20216;-59
2021/03/12 14:32:36;;;;;;;21.67;13.05;;;;;;;;;;4992911;28;20462;-59
2021/03/12 14:35:03;;;;;;;21.20;12.35;;;;;;;;;;4992881;28;20054;-58